sensor_id;sensor_type;location;lat;lon;timestamp;temperature;humidity
21214;DHT22;10764;50.850;2.904;2022-09-09T00:07:00;23.70;57.60
21214;DHT22;10764;50.850;2.904;2022-09-09T00:15:11;23.60;57.60
21214;DHT22;10764;50.850;2.904;2022-09-09T00:17:48;23.70;57.60
21214;DHT22;10764;50.850;2.904;2022-09-09T00:20:33;23.70;57.60
21214;DHT22;10764;50.850;2.904;2022-09-09T00:23:23;23.70;57.60
21214;DHT22;10764;50.850;2.904;2022-09-09T00:26:08;23.60;57.60
21214;DHT22;10764;50.850;2.904;2022-09-09T00:28:43;23.70;58.20
21214;DHT22;10764;50.850;2.904;2022-09-09T00:31:15;23.60;57.60
21214;DHT22;10764;50.850;2.904;2022-09-09T00:33:43;23.60;57.60
21214;DHT22;10764;50.850;2.904;2022-09-09T00:36:17;23.60;57.50
21214;DHT22;10764;50.850;2.904;2022-09-09T00:38:51;23.60;57.60
21214;DHT22;10764;50.850;2.904;2022-09-09T00:41:22;23.60;57.50
21214;DHT22;10764;50.850;2.904;2022-09-09T00:44:00;23.70;57.60
21214;DHT22;10764;50.850;2.904;2022-09-09T00:49:23;23.70;57.60
21214;DHT22;10764;50.850;2.904;2022-09-09T00:54:28;23.60;57.50
21214;DHT22;10764;50.850;2.904;2022-09-09T00:57:07;23.70;57.60
21214;DHT22;10764;50.850;2.904;2022-09-09T00:59:51;23.60;57.50
21214;DHT22;10764;50.850;2.904;2022-09-09T01:02:35;23.60;57.50
21214;DHT22;10764;50.850;2.904;2022-09-09T01:05:12;23.70;57.50
21214;DHT22;10764;50.850;2.904;2022-09-09T01:07:44;23.70;57.50
21214;DHT22;10764;50.850;2.904;2022-09-09T01:13:00;23.60;57.50
21214;DHT22;10764;50.850;2.904;2022-09-09T01:15:31;23.60;57.50
21214;DHT22;10764;50.850;2.904;2022-09-09T01:18:03;23.60;57.50
21214;DHT22;10764;50.850;2.904;2022-09-09T01:23:38;23.70;57.60
21214;DHT22;10764;50.850;2.904;2022-09-09T01:26:24;23.60;57.50
21214;DHT22;10764;50.850;2.904;2022-09-09T01:28:55;23.60;57.50
21214;DHT22;10764;50.850;2.904;2022-09-09T01:31:37;23.60;57.50
21214;DHT22;10764;50.850;2.904;2022-09-09T01:34:13;23.60;57.50
21214;DHT22;10764;50.850;2.904;2022-09-09T01:36:46;23.60;57.50
21214;DHT22;10764;50.850;2.904;2022-09-09T01:39:17;23.60;57.50
21214;DHT22;10764;50.850;2.904;2022-09-09T01:41:47;23.60;57.50
21214;DHT22;10764;50.850;2.904;2022-09-09T01:44:17;23.60;57.50
21214;DHT22;10764;50.850;2.904;2022-09-09T01:49:18;23.60;57.50
21214;DHT22;10764;50.850;2.904;2022-09-09T01:51:51;23.60;57.50
21214;DHT22;10764;50.850;2.904;2022-09-09T01:54:27;23.60;57.50
21214;DHT22;10764;50.850;2.904;2022-09-09T01:57:08;23.60;57.50
21214;DHT22;10764;50.850;2.904;2022-09-09T02:00:00;23.60;57.50
21214;DHT22;10764;50.850;2.904;2022-09-09T02:02:33;23.60;57.50
21214;DHT22;10764;50.850;2.904;2022-09-09T02:07:43;23.60;57.50
21214;DHT22;10764;50.850;2.904;2022-09-09T02:10:33;23.60;57.50
21214;DHT22;10764;50.850;2.904;2022-09-09T02:13:14;23.60;57.50
21214;DHT22;10764;50.850;2.904;2022-09-09T02:18:40;23.60;57.50
21214;DHT22;10764;50.850;2.904;2022-09-09T02:21:10;23.60;57.50
21214;DHT22;10764;50.850;2.904;2022-09-09T02:26:12;23.60;57.50
21214;DHT22;10764;50.850;2.904;2022-09-09T02:28:50;23.60;57.50
21214;DHT22;10764;50.850;2.904;2022-09-09T02:31:20;23.60;57.50
21214;DHT22;10764;50.850;2.904;2022-09-09T02:33:56;23.60;57.50
21214;DHT22;10764;50.850;2.904;2022-09-09T02:36:26;23.60;57.50
21214;DHT22;10764;50.850;2.904;2022-09-09T02:38:55;23.60;57.50
21214;DHT22;10764;50.850;2.904;2022-09-09T02:41:38;23.60;57.50
21214;DHT22;10764;50.850;2.904;2022-09-09T02:44:11;23.60;57.50
21214;DHT22;10764;50.850;2.904;2022-09-09T02:52:27;23.60;58.10
21214;DHT22;10764;50.850;2.904;2022-09-09T02:54:59;23.60;57.50
21214;DHT22;10764;50.850;2.904;2022-09-09T02:57:30;23.60;57.50
21214;DHT22;10764;50.850;2.904;2022-09-09T03:00:00;23.60;57.50
21214;DHT22;10764;50.850;2.904;2022-09-09T03:02:32;23.60;57.50
21214;DHT22;10764;50.850;2.904;2022-09-09T03:05:05;23.60;57.50
21214;DHT22;10764;50.850;2.904;2022-09-09T03:07:32;23.60;57.50
21214;DHT22;10764;50.850;2.904;2022-09-09T03:10:00;23.60;57.50
21214;DHT22;10764;50.850;2.904;2022-09-09T03:12:27;23.60;57.50
21214;DHT22;10764;50.850;2.904;2022-09-09T03:14:54;23.60;57.50
21214;DHT22;10764;50.850;2.904;2022-09-09T03:17:22;23.60;57.50
21214;DHT22;10764;50.850;2.904;2022-09-09T03:19:53;23.50;57.50
21214;DHT22;10764;50.850;2.904;2022-09-09T03:27:15;23.60;57.50
21214;DHT22;10764;50.850;2.904;2022-09-09T03:29:43;23.60;57.60
21214;DHT22;10764;50.850;2.904;2022-09-09T03:32:15;23.60;57.60
21214;DHT22;10764;50.850;2.904;2022-09-09T03:34:44;23.60;57.60
21214;DHT22;10764;50.850;2.904;2022-09-09T03:37:13;23.60;57.60
21214;DHT22;10764;50.850;2.904;2022-09-09T03:39:40;23.60;57.60
21214;DHT22;10764;50.850;2.904;2022-09-09T03:42:08;23.60;57.60
21214;DHT22;10764;50.850;2.904;2022-09-09T03:44:36;23.60;57.60
21214;DHT22;10764;50.850;2.904;2022-09-09T03:49:32;23.60;57.60
21214;DHT22;10764;50.850;2.904;2022-09-09T03:52:00;23.60;57.60
21214;DHT22;10764;50.850;2.904;2022-09-09T03:54:28;23.50;57.50
21214;DHT22;10764;50.850;2.904;2022-09-09T03:59:23;23.60;57.60
21214;DHT22;10764;50.850;2.904;2022-09-09T04:01:49;23.50;57.50
21214;DHT22;10764;50.850;2.904;2022-09-09T04:06:46;23.60;57.60
21214;DHT22;10764;50.850;2.904;2022-09-09T04:11:42;23.60;57.60
21214;DHT22;10764;50.850;2.904;2022-09-09T04:14:08;23.50;57.50
21214;DHT22;10764;50.850;2.904;2022-09-09T04:16:35;23.60;57.60
21214;DHT22;10764;50.850;2.904;2022-09-09T04:19:07;23.50;57.60
21214;DHT22;10764;50.850;2.904;2022-09-09T04:21:34;23.50;57.60
21214;DHT22;10764;50.850;2.904;2022-09-09T04:24:01;23.60;57.60
21214;DHT22;10764;50.850;2.904;2022-09-09T04:26:28;23.50;57.60
21214;DHT22;10764;50.850;2.904;2022-09-09T04:28:55;23.60;57.70
21214;DHT22;10764;50.850;2.904;2022-09-09T04:31:23;23.50;57.60
21214;DHT22;10764;50.850;2.904;2022-09-09T04:33:53;23.60;57.70
21214;DHT22;10764;50.850;2.904;2022-09-09T04:36:21;23.50;57.60
21214;DHT22;10764;50.850;2.904;2022-09-09T04:38:51;23.50;57.70
21214;DHT22;10764;50.850;2.904;2022-09-09T04:41:18;23.50;57.70
21214;DHT22;10764;50.850;2.904;2022-09-09T04:43:48;23.50;57.70
21214;DHT22;10764;50.850;2.904;2022-09-09T04:46:16;23.50;57.70
21214;DHT22;10764;50.850;2.904;2022-09-09T04:48:48;23.60;57.80
21214;DHT22;10764;50.850;2.904;2022-09-09T04:51:16;23.50;57.70
21214;DHT22;10764;50.850;2.904;2022-09-09T04:53:45;23.50;57.60
21214;DHT22;10764;50.850;2.904;2022-09-09T04:56:17;23.60;57.70
21214;DHT22;10764;50.850;2.904;2022-09-09T05:01:20;23.50;57.70
21214;DHT22;10764;50.850;2.904;2022-09-09T05:03:50;23.50;57.70
21214;DHT22;10764;50.850;2.904;2022-09-09T05:06:21;23.60;57.70
21214;DHT22;10764;50.850;2.904;2022-09-09T05:08:52;23.50;57.70
21214;DHT22;10764;50.850;2.904;2022-09-09T05:11:29;23.50;57.70
21214;DHT22;10764;50.850;2.904;2022-09-09T05:14:34;23.60;57.70
21214;DHT22;10764;50.850;2.904;2022-09-09T05:17:04;23.50;57.70
21214;DHT22;10764;50.850;2.904;2022-09-09T05:19:33;23.50;57.70
21214;DHT22;10764;50.850;2.904;2022-09-09T05:22:01;23.50;57.70
21214;DHT22;10764;50.850;2.904;2022-09-09T05:24:36;23.60;57.80
21214;DHT22;10764;50.850;2.904;2022-09-09T05:27:05;23.60;57.80
21214;DHT22;10764;50.850;2.904;2022-09-09T05:29:33;23.60;57.80
21214;DHT22;10764;50.850;2.904;2022-09-09T05:32:02;23.50;57.80
21214;DHT22;10764;50.850;2.904;2022-09-09T05:34:28;23.50;57.80
21214;DHT22;10764;50.850;2.904;2022-09-09T05:36:55;23.60;57.80
21214;DHT22;10764;50.850;2.904;2022-09-09T05:39:23;23.50;57.70
21214;DHT22;10764;50.850;2.904;2022-09-09T05:41:50;23.50;57.70
21214;DHT22;10764;50.850;2.904;2022-09-09T05:44:17;23.50;57.60
21214;DHT22;10764;50.850;2.904;2022-09-09T05:46:45;23.50;57.60
21214;DHT22;10764;50.850;2.904;2022-09-09T05:49:13;23.50;57.60
21214;DHT22;10764;50.850;2.904;2022-09-09T05:51:43;23.50;57.60
21214;DHT22;10764;50.850;2.904;2022-09-09T05:54:13;23.60;57.60
21214;DHT22;10764;50.850;2.904;2022-09-09T05:56:45;23.50;57.50
21214;DHT22;10764;50.850;2.904;2022-09-09T05:59:17;23.50;57.50
21214;DHT22;10764;50.850;2.904;2022-09-09T06:01:44;23.50;57.50
21214;DHT22;10764;50.850;2.904;2022-09-09T06:04:19;23.50;57.40
21214;DHT22;10764;50.850;2.904;2022-09-09T06:06:49;23.50;57.40
21214;DHT22;10764;50.850;2.904;2022-09-09T06:09:17;23.50;57.40
21214;DHT22;10764;50.850;2.904;2022-09-09T06:11:44;23.50;57.40
21214;DHT22;10764;50.850;2.904;2022-09-09T06:14:13;23.50;57.40
21214;DHT22;10764;50.850;2.904;2022-09-09T06:16:42;23.50;57.40
21214;DHT22;10764;50.850;2.904;2022-09-09T06:19:16;23.50;57.40
21214;DHT22;10764;50.850;2.904;2022-09-09T06:21:43;23.50;57.40
21214;DHT22;10764;50.850;2.904;2022-09-09T06:24:11;23.50;57.40
21214;DHT22;10764;50.850;2.904;2022-09-09T06:26:40;23.50;57.30
21214;DHT22;10764;50.850;2.904;2022-09-09T06:29:10;23.40;57.30
21214;DHT22;10764;50.850;2.904;2022-09-09T06:31:38;23.50;57.30
21214;DHT22;10764;50.850;2.904;2022-09-09T06:34:12;23.50;57.40
21214;DHT22;10764;50.850;2.904;2022-09-09T06:36:43;23.40;57.50
21214;DHT22;10764;50.850;2.904;2022-09-09T06:39:12;23.50;57.70
21214;DHT22;10764;50.850;2.904;2022-09-09T06:41:41;23.50;57.70
21214;DHT22;10764;50.850;2.904;2022-09-09T06:44:24;23.50;57.70
21214;DHT22;10764;50.850;2.904;2022-09-09T06:46:55;23.50;57.60
21214;DHT22;10764;50.850;2.904;2022-09-09T06:49:24;23.50;57.60
21214;DHT22;10764;50.850;2.904;2022-09-09T06:51:51;23.50;57.60
21214;DHT22;10764;50.850;2.904;2022-09-09T06:54:21;23.40;57.50
21214;DHT22;10764;50.850;2.904;2022-09-09T06:56:50;23.50;57.60
21214;DHT22;10764;50.850;2.904;2022-09-09T06:59:21;23.50;57.70
21214;DHT22;10764;50.850;2.904;2022-09-09T07:01:50;23.50;57.50
21214;DHT22;10764;50.850;2.904;2022-09-09T07:04:22;23.50;57.50
21214;DHT22;10764;50.850;2.904;2022-09-09T07:06:49;23.50;57.50
21214;DHT22;10764;50.850;2.904;2022-09-09T07:09:21;23.40;57.40
21214;DHT22;10764;50.850;2.904;2022-09-09T07:11:51;23.50;57.50
21214;DHT22;10764;50.850;2.904;2022-09-09T07:16:54;23.40;57.30
21214;DHT22;10764;50.850;2.904;2022-09-09T07:19:26;23.50;57.40
21214;DHT22;10764;50.850;2.904;2022-09-09T07:29:18;23.50;57.30
21214;DHT22;10764;50.850;2.904;2022-09-09T07:31:48;23.50;57.30
21214;DHT22;10764;50.850;2.904;2022-09-09T07:34:21;23.50;57.30
21214;DHT22;10764;50.850;2.904;2022-09-09T07:36:48;23.50;57.30
21214;DHT22;10764;50.850;2.904;2022-09-09T08:57:57;23.60;59.30
21214;DHT22;10764;50.850;2.904;2022-09-09T09:11:18;23.80;58.20
21214;DHT22;10764;50.850;2.904;2022-09-09T09:18:52;23.80;57.80
21214;DHT22;10764;50.850;2.904;2022-09-09T09:24:14;23.70;57.40
21214;DHT22;10764;50.850;2.904;2022-09-09T09:39:30;23.80;58.20
21214;DHT22;10764;50.850;2.904;2022-09-09T10:18:39;23.90;56.80
21214;DHT22;10764;50.850;2.904;2022-09-09T10:34:55;23.70;56.90
21214;DHT22;10764;50.850;2.904;2022-09-09T10:48:31;24.10;57.20
21214;DHT22;10764;50.850;2.904;2022-09-09T11:01:27;23.70;56.90
21214;DHT22;10764;50.850;2.904;2022-09-09T11:09:04;24.10;57.00
21214;DHT22;10764;50.850;2.904;2022-09-09T11:19:42;24.10;57.10
21214;DHT22;10764;50.850;2.904;2022-09-09T11:38:25;23.80;56.90
21214;DHT22;10764;50.850;2.904;2022-09-09T11:46:02;23.90;57.10
21214;DHT22;10764;50.850;2.904;2022-09-09T11:48:40;24.20;57.20
21214;DHT22;10764;50.850;2.904;2022-09-09T11:53:54;24.00;57.30
21214;DHT22;10764;50.850;2.904;2022-09-09T11:59:06;24.20;57.30
21214;DHT22;10764;50.850;2.904;2022-09-09T12:40:22;24.10;57.70
21214;DHT22;10764;50.850;2.904;2022-09-09T13:00:22;24.10;57.30
21214;DHT22;10764;50.850;2.904;2022-09-09T13:15:55;24.00;56.80
21214;DHT22;10764;50.850;2.904;2022-09-09T13:18:34;24.20;56.80
21214;DHT22;10764;50.850;2.904;2022-09-09T13:26:06;23.90;56.50
21214;DHT22;10764;50.850;2.904;2022-09-09T13:51:39;24.30;56.40
21214;DHT22;10764;50.850;2.904;2022-09-09T14:41:15;23.90;56.30
21214;DHT22;10764;50.850;2.904;2022-09-09T14:56:10;24.10;56.70
21214;DHT22;10764;50.850;2.904;2022-09-09T15:06:13;24.10;57.00
21214;DHT22;10764;50.850;2.904;2022-09-09T15:26:00;24.20;57.10
21214;DHT22;10764;50.850;2.904;2022-09-09T15:40:53;24.10;57.00
21214;DHT22;10764;50.850;2.904;2022-09-09T15:43:22;24.10;56.90
21214;DHT22;10764;50.850;2.904;2022-09-09T15:48:30;24.10;56.80
21214;DHT22;10764;50.850;2.904;2022-09-09T15:51:03;24.10;56.70
21214;DHT22;10764;50.850;2.904;2022-09-09T16:03:41;24.10;56.50
21214;DHT22;10764;50.850;2.904;2022-09-09T16:08:43;24.10;56.60
21214;DHT22;10764;50.850;2.904;2022-09-09T16:16:15;24.10;56.50
21214;DHT22;10764;50.850;2.904;2022-09-09T16:18:50;24.10;56.40
21214;DHT22;10764;50.850;2.904;2022-09-09T16:21:23;24.10;56.40
21214;DHT22;10764;50.850;2.904;2022-09-09T16:26:27;24.10;56.40
21214;DHT22;10764;50.850;2.904;2022-09-09T16:31:23;24.10;56.40
21214;DHT22;10764;50.850;2.904;2022-09-09T16:36:20;24.10;56.30
21214;DHT22;10764;50.850;2.904;2022-09-09T16:38:55;24.00;56.30
21214;DHT22;10764;50.850;2.904;2022-09-09T16:41:25;23.90;56.50
21214;DHT22;10764;50.850;2.904;2022-09-09T16:44:00;24.00;56.40
21214;DHT22;10764;50.850;2.904;2022-09-09T16:46:31;24.00;56.40
21214;DHT22;10764;50.850;2.904;2022-09-09T16:49:00;24.10;56.50
21214;DHT22;10764;50.850;2.904;2022-09-09T16:53:59;23.90;56.50
21214;DHT22;10764;50.850;2.904;2022-09-09T16:56:30;23.90;56.50
21214;DHT22;10764;50.850;2.904;2022-09-09T17:04:03;24.00;56.60
21214;DHT22;10764;50.850;2.904;2022-09-09T17:26:26;23.90;56.40
21214;DHT22;10764;50.850;2.904;2022-09-09T17:54:08;23.90;56.30
21214;DHT22;10764;50.850;2.904;2022-09-09T17:59:05;23.90;56.30
21214;DHT22;10764;50.850;2.904;2022-09-09T18:04:08;23.90;56.20
21214;DHT22;10764;50.850;2.904;2022-09-09T18:11:36;23.90;56.10
21214;DHT22;10764;50.850;2.904;2022-09-09T18:38:58;23.70;55.90
21214;DHT22;10764;50.850;2.904;2022-09-09T19:26:41;23.80;56.00
21214;DHT22;10764;50.850;2.904;2022-09-09T20:01:44;23.70;56.10
21214;DHT22;10764;50.850;2.904;2022-09-09T20:04:13;23.60;56.10
21214;DHT22;10764;50.850;2.904;2022-09-09T20:06:43;23.80;56.20
21214;DHT22;10764;50.850;2.904;2022-09-09T20:09:14;23.80;56.20
21214;DHT22;10764;50.850;2.904;2022-09-09T20:11:46;23.70;56.20
21214;DHT22;10764;50.850;2.904;2022-09-09T20:14:14;23.70;56.20
21214;DHT22;10764;50.850;2.904;2022-09-09T20:16:42;23.70;56.20
21214;DHT22;10764;50.850;2.904;2022-09-09T20:46:43;23.70;56.40
21214;DHT22;10764;50.850;2.904;2022-09-09T21:56:16;23.60;56.70
